createdAt,value
2022-09-21T00:00:31.305Z,7.78
2022-09-21T00:04:15.383Z,7.74
2022-09-21T00:08:01.245Z,7.68
2022-09-21T00:11:58.439Z,7.59
2022-09-21T00:15:41.947Z,7.58
2022-09-21T00:19:25.984Z,7.54
2022-09-21T00:23:08.707Z,7.52
2022-09-21T00:26:54.162Z,7.43
2022-09-21T00:30:39.520Z,7.35
2022-09-21T00:34:22.203Z,7.29
2022-09-21T00:38:06.325Z,7.23
2022-09-21T00:42:09.586Z,7.20
2022-09-21T00:45:56.055Z,7.13
2022-09-21T00:49:39.877Z,7.08
2022-09-21T00:53:23.987Z,7.04
2022-09-21T00:57:08.027Z,7.02
2022-09-21T01:00:50.870Z,7.06
2022-09-21T01:04:33.652Z,7.04
2022-09-21T01:08:17.163Z,7.04
2022-09-21T01:12:09.960Z,7.02
2022-09-21T01:15:58.408Z,7.03
2022-09-21T01:19:58.223Z,7.02
2022-09-21T01:23:55.550Z,7.02
2022-09-21T01:27:52.639Z,7.00
2022-09-21T01:31:40.979Z,7.01
2022-09-21T01:35:27.255Z,6.98
2022-09-21T01:39:13.417Z,6.94
2022-09-21T01:42:57.167Z,6.95
2022-09-21T01:46:41.224Z,6.95
2022-09-21T01:50:24.227Z,6.90
2022-09-21T01:54:14.005Z,6.91
2022-09-21T01:57:59.551Z,6.91
2022-09-21T02:01:47.790Z,6.89
2022-09-21T02:05:31.247Z,6.83
2022-09-21T02:09:14.466Z,6.78
2022-09-21T02:13:01.313Z,6.78
2022-09-21T02:16:49.900Z,6.79
2022-09-21T02:20:34.277Z,6.73
2022-09-21T02:24:24.747Z,6.66
2022-09-21T02:28:11.680Z,6.61
2022-09-21T02:32:00.309Z,6.52
2022-09-21T02:35:48.245Z,6.48
2022-09-21T02:39:34.745Z,6.52
2022-09-21T02:43:21.578Z,6.52
2022-09-21T02:47:10.293Z,6.54
2022-09-21T02:50:55.167Z,6.52
2022-09-21T02:54:38.763Z,6.51
2022-09-21T02:58:23.148Z,6.49
2022-09-21T03:02:08.065Z,6.50
2022-09-21T03:05:53.430Z,6.47
2022-09-21T03:09:36.181Z,6.43
2022-09-21T03:13:19.104Z,6.45
2022-09-21T03:17:01.942Z,6.43
2022-09-21T03:20:47.036Z,6.39
2022-09-21T03:24:47.719Z,6.31
2022-09-21T03:28:30.816Z,6.26
2022-09-21T03:32:13.818Z,6.27
2022-09-21T03:35:57.935Z,6.26
2022-09-21T03:39:40.708Z,6.24
2022-09-21T03:43:23.448Z,6.26
2022-09-21T03:47:06.629Z,6.27
2022-09-21T03:50:49.334Z,6.26
2022-09-21T03:54:33.374Z,6.22
2022-09-21T03:58:16.303Z,6.13
2022-09-21T04:01:58.956Z,6.03
2022-09-21T04:05:41.709Z,5.95
2022-09-21T04:09:24.398Z,5.96
2022-09-21T04:13:08.446Z,5.92
2022-09-21T04:16:52.057Z,5.90
2022-09-21T04:20:34.801Z,5.89
2022-09-21T04:24:18.884Z,5.85
2022-09-21T04:28:01.868Z,5.79
2022-09-21T04:31:45.923Z,5.75
2022-09-21T04:35:28.654Z,5.80
2022-09-21T04:39:11.504Z,5.85
2022-09-21T04:42:54.284Z,5.87
2022-09-21T04:46:37.145Z,5.85
2022-09-21T04:50:21.276Z,5.83
2022-09-21T04:54:04.486Z,5.79
2022-09-21T04:57:47.187Z,5.69
2022-09-21T05:01:29.960Z,5.60
2022-09-21T05:05:13.310Z,5.55
2022-09-21T05:09:30.368Z,5.51
2022-09-21T05:13:15.644Z,5.49
2022-09-21T05:17:01.901Z,5.47
2022-09-21T05:20:44.582Z,5.47
2022-09-21T05:24:28.913Z,5.54
2022-09-21T05:28:12.127Z,5.63
2022-09-21T05:31:58.964Z,5.68
2022-09-21T05:35:45.502Z,5.75
2022-09-21T05:39:30.315Z,5.82
2022-09-21T05:43:13.513Z,5.86
2022-09-21T05:47:00.757Z,5.89
2022-09-21T05:50:54.490Z,5.96
2022-09-21T05:54:46.594Z,6.02
2022-09-21T05:58:36.788Z,6.14
2022-09-21T06:02:31.557Z,6.26
2022-09-21T06:06:14.255Z,6.38
2022-09-21T06:09:58.302Z,6.49
2022-09-21T06:13:41.897Z,6.63
2022-09-21T06:17:27.278Z,6.74
2022-09-21T06:21:10.570Z,6.88
2022-09-21T06:24:53.282Z,7.01
2022-09-21T06:28:37.340Z,7.12
2022-09-21T06:32:20.865Z,7.24
2022-09-21T06:36:03.812Z,7.37
2022-09-21T06:39:46.482Z,7.52
2022-09-21T06:43:29.184Z,7.79
2022-09-21T06:47:13.207Z,7.93
2022-09-21T06:50:58.981Z,8.07
2022-09-21T06:54:42.368Z,8.15
2022-09-21T06:58:25.345Z,8.20
2022-09-21T07:02:08.221Z,8.28
2022-09-21T07:05:52.385Z,8.39
2022-09-21T07:13:41.295Z,8.58
2022-09-21T07:17:27.339Z,8.68
2022-09-21T07:21:12.305Z,8.77
2022-09-21T07:24:55.005Z,8.86
2022-09-21T07:28:38.008Z,8.94
2022-09-21T07:32:20.878Z,9.05
2022-09-21T07:36:10.052Z,9.12
2022-09-21T07:39:54.620Z,9.26
2022-09-21T07:43:39.323Z,9.36
2022-09-21T07:47:22.008Z,9.42
2022-09-21T07:51:08.165Z,9.48
2022-09-21T07:54:50.844Z,9.55
2022-09-21T07:58:54.038Z,9.68
2022-09-21T08:02:36.809Z,9.83
2022-09-21T08:06:20.179Z,9.92
2022-09-21T08:10:02.851Z,10.00
2022-09-21T08:13:47.391Z,10.07
2022-09-21T08:17:30.076Z,10.15
2022-09-21T08:21:13.334Z,10.21
2022-09-21T08:24:57.072Z,10.32
2022-09-21T08:28:40.280Z,10.45
2022-09-21T08:32:49.452Z,10.52
2022-09-21T08:36:27.481Z,10.60
2022-09-21T08:40:11.968Z,10.66
2022-09-21T08:43:57.890Z,10.71
2022-09-21T08:47:44.920Z,10.83
2022-09-21T08:51:29.862Z,10.90
2022-09-21T08:55:18.947Z,11.00
2022-09-21T08:59:01.651Z,11.10
2022-09-21T09:03:20.032Z,11.22
2022-09-21T09:07:11.299Z,11.35
2022-09-21T09:11:01.543Z,11.40
2022-09-21T09:14:56.362Z,11.48
2022-09-21T09:18:45.300Z,11.59
2022-09-21T09:22:31.500Z,11.73
2022-09-21T09:26:19.645Z,11.97
2022-09-21T09:30:05.677Z,12.21
2022-09-21T09:34:01.152Z,12.39
2022-09-21T09:37:46.620Z,12.42
2022-09-21T09:42:05.045Z,12.52
2022-09-21T09:45:53.094Z,12.53
2022-09-21T09:49:42.815Z,12.48
2022-09-21T09:53:29.116Z,12.41
2022-09-21T09:57:12.007Z,12.39
2022-09-21T10:00:58.351Z,12.32
2022-09-21T10:05:03.731Z,12.32
2022-09-21T10:08:47.554Z,12.30
2022-09-21T10:12:31.529Z,12.33
2022-09-21T10:16:15.845Z,12.38
2022-09-21T10:20:04.167Z,12.40
2022-09-21T10:23:49.443Z,12.45
2022-09-21T10:27:35.547Z,12.53
2022-09-21T10:31:25.019Z,12.59
2022-09-21T10:35:19.032Z,12.66
2022-09-21T10:39:27.080Z,12.76
2022-09-21T10:43:24.749Z,12.82
2022-09-21T10:47:19.679Z,12.86
2022-09-21T10:51:04.847Z,12.97
2022-09-21T10:54:52.054Z,13.14
2022-09-21T10:58:39.168Z,13.31
2022-09-21T11:02:35.382Z,13.41
2022-09-21T11:06:22.728Z,13.53
2022-09-21T11:10:12.281Z,13.66
2022-09-21T11:14:01.126Z,13.78
2022-09-21T11:17:47.088Z,13.91
2022-09-21T11:21:36.810Z,14.03
2022-09-21T11:25:31.159Z,14.03
2022-09-21T11:29:18.454Z,14.13
2022-09-21T11:33:09.966Z,14.29
2022-09-21T11:36:59.024Z,14.36
2022-09-21T11:41:12.476Z,14.41
2022-09-21T11:44:57.030Z,14.38
2022-09-21T11:48:50.341Z,14.38
2022-09-21T11:52:46.659Z,14.58
2022-09-21T11:56:36.273Z,14.83
2022-09-21T12:00:20.654Z,14.96
2022-09-21T12:04:15.385Z,15.16
2022-09-21T12:08:21.967Z,15.22
2022-09-21T12:12:09.888Z,15.26
2022-09-21T12:15:59.820Z,15.43
2022-09-21T12:19:47.420Z,15.67
2022-09-21T12:23:39.701Z,15.95
2022-09-21T12:27:27.781Z,16.16
2022-09-21T12:31:13.271Z,16.25
2022-09-21T12:34:58.260Z,16.29
2022-09-21T12:38:45.922Z,16.42
2022-09-21T12:42:32.883Z,16.62
2022-09-21T12:46:19.044Z,16.86
2022-09-21T12:50:06.809Z,17.12
2022-09-21T12:53:52.679Z,17.29
2022-09-21T12:58:04.405Z,17.51
2022-09-21T13:01:57.738Z,17.81
2022-09-21T13:05:45.135Z,18.14
2022-09-21T13:09:33.097Z,18.23
2022-09-21T13:13:28.833Z,18.48
2022-09-21T13:17:20.459Z,18.59
2022-09-21T13:21:16.372Z,18.88
2022-09-21T13:25:03.345Z,19.10
2022-09-21T13:29:04.328Z,19.23
2022-09-21T13:32:53.171Z,19.48
2022-09-21T13:36:37.264Z,19.75
2022-09-21T13:40:42.627Z,19.87
2022-09-21T13:44:43.073Z,19.86
2022-09-21T13:48:29.464Z,19.69
2022-09-21T13:52:27.390Z,19.04
2022-09-21T13:56:22.908Z,18.77
2022-09-21T14:00:29.850Z,18.97
2022-09-21T14:04:20.997Z,19.13
2022-09-21T14:08:06.686Z,19.37
2022-09-21T14:11:56.271Z,19.57
2022-09-21T14:15:40.732Z,19.65
2022-09-21T14:20:07.496Z,19.73
2022-09-21T14:24:21.557Z,19.97
2022-09-21T14:28:07.038Z,20.08
2022-09-21T14:31:50.922Z,19.85
2022-09-21T14:35:35.320Z,19.59
2022-09-21T14:39:20.739Z,19.66
2022-09-21T14:43:12.764Z,19.75
2022-09-21T14:47:11.009Z,19.79
2022-09-21T14:50:57.989Z,19.88
2022-09-21T14:54:48.655Z,20.07
2022-09-21T14:58:44.229Z,20.32
2022-09-21T15:02:29.198Z,20.51
2022-09-21T15:06:36.789Z,20.60
2022-09-21T15:10:45.813Z,20.71
2022-09-21T15:14:35.734Z,20.86
2022-09-21T15:18:21.396Z,20.90
2022-09-21T15:22:16.587Z,20.89
2022-09-21T15:26:03.373Z,20.94
2022-09-21T15:29:49.025Z,21.01
2022-09-21T15:33:31.969Z,21.14
2022-09-21T15:37:17.418Z,21.17
2022-09-21T15:41:04.339Z,21.25
2022-09-21T15:44:51.859Z,21.23
2022-09-21T15:48:36.175Z,21.10
2022-09-21T15:52:28.409Z,21.06
2022-09-21T15:56:18.874Z,20.84
2022-09-21T16:00:06.051Z,20.74
2022-09-21T16:03:51.104Z,20.60
2022-09-21T16:07:38.097Z,20.52
2022-09-21T16:11:25.066Z,20.48
2022-09-21T16:15:17.591Z,20.31
2022-09-21T16:19:01.031Z,20.09
2022-09-21T16:22:45.620Z,19.71
2022-09-21T16:26:31.545Z,19.06
2022-09-21T16:30:47.423Z,18.50
2022-09-21T16:34:37.335Z,17.93
2022-09-21T16:38:20.346Z,17.54
2022-09-21T16:42:04.223Z,17.19
2022-09-21T16:45:48.283Z,16.91
2022-09-21T16:49:35.605Z,16.62
2022-09-21T16:53:19.347Z,16.38
2022-09-21T16:57:06.199Z,16.10
2022-09-21T17:00:56.202Z,15.85
2022-09-21T17:04:39.193Z,15.64
2022-09-21T17:08:22.679Z,15.44
2022-09-21T17:12:07.810Z,15.26
2022-09-21T17:15:53.430Z,15.07
2022-09-21T17:19:36.894Z,14.88
2022-09-21T17:23:20.461Z,14.81
2022-09-21T17:27:03.136Z,14.71
2022-09-21T17:30:46.527Z,14.55
2022-09-21T17:34:32.295Z,14.41
2022-09-21T17:38:15.030Z,14.23
2022-09-21T17:42:02.361Z,14.08
2022-09-21T17:45:50.453Z,13.92
2022-09-21T17:49:37.894Z,13.80
2022-09-21T17:53:38.774Z,13.68
2022-09-21T17:57:32.231Z,13.58
2022-09-21T18:01:24.276Z,13.48
2022-09-21T18:05:18.693Z,13.37
2022-09-21T18:09:02.274Z,13.26
2022-09-21T18:12:58.896Z,13.18
2022-09-21T18:16:49.836Z,13.11
2022-09-21T18:20:42.352Z,13.06
2022-09-21T18:24:30.932Z,12.99
2022-09-21T18:28:17.450Z,12.90
2022-09-21T18:32:21.182Z,12.81
2022-09-21T18:36:23.330Z,12.74
2022-09-21T18:40:21.780Z,12.65
2022-09-21T18:44:13.766Z,12.53
2022-09-21T18:48:09.713Z,12.41
2022-09-21T18:52:03.162Z,12.37
2022-09-21T18:55:46.967Z,12.33
2022-09-21T18:59:32.038Z,12.32
2022-09-21T19:03:18.646Z,12.28
2022-09-21T19:07:10.531Z,12.25
2022-09-21T19:10:57.926Z,12.22
2022-09-21T19:14:48.712Z,12.19
2022-09-21T19:18:38.056Z,12.13
2022-09-21T19:22:26.962Z,12.04
2022-09-21T19:26:15.926Z,12.00
2022-09-21T19:30:06.045Z,11.99
2022-09-21T19:33:51.167Z,11.94
2022-09-21T19:37:35.815Z,11.90
2022-09-21T19:41:37.783Z,11.86
2022-09-21T19:45:26.155Z,11.80
2022-09-21T19:49:18.348Z,11.71
2022-09-21T19:53:17.015Z,11.64
2022-09-21T19:57:17.640Z,11.60
2022-09-21T20:01:00.734Z,11.56
2022-09-21T20:04:48.938Z,11.45
2022-09-21T20:08:36.989Z,11.37
2022-09-21T20:12:23.116Z,11.35
2022-09-21T20:16:21.733Z,11.34
2022-09-21T20:20:09.324Z,11.27
2022-09-21T20:23:59.973Z,11.19
2022-09-21T20:27:45.567Z,11.15
2022-09-21T20:31:28.459Z,11.10
2022-09-21T20:35:16.384Z,11.02
2022-09-21T20:39:01.024Z,10.96
2022-09-21T20:42:43.785Z,10.89
2022-09-21T20:46:26.723Z,10.82
2022-09-21T20:50:11.996Z,10.74
2022-09-21T20:53:58.141Z,10.68
2022-09-21T20:57:44.970Z,10.62
2022-09-21T21:01:27.964Z,10.51
2022-09-21T21:05:11.760Z,10.39
2022-09-21T21:09:03.408Z,10.29
2022-09-21T21:12:47.541Z,10.23
2022-09-21T21:16:30.375Z,10.14
2022-09-21T21:20:14.438Z,10.12
2022-09-21T21:24:14.933Z,10.08
2022-09-21T21:28:01.692Z,10.02
2022-09-21T21:31:44.464Z,9.93
2022-09-21T21:35:27.302Z,9.92
2022-09-21T21:39:11.742Z,9.89
2022-09-21T21:42:57.264Z,9.86
2022-09-21T21:46:51.267Z,9.82
2022-09-21T21:50:36.491Z,9.80
2022-09-21T21:54:19.998Z,9.70
2022-09-21T21:58:02.718Z,9.56
2022-09-21T22:01:46.829Z,9.51
2022-09-21T22:05:31.969Z,9.48
2022-09-21T22:09:16.391Z,9.46
2022-09-21T22:12:59.224Z,9.48
2022-09-21T22:16:42.378Z,9.42
2022-09-21T22:20:26.604Z,9.33
2022-09-21T22:24:10.410Z,9.26
2022-09-21T22:27:53.083Z,9.18
2022-09-21T22:31:37.806Z,9.11
2022-09-21T22:35:24.524Z,8.96
2022-09-21T22:39:09.499Z,8.87
2022-09-21T22:42:52.267Z,8.75
2022-09-21T22:46:35.398Z,8.71
2022-09-21T22:50:20.416Z,8.71
2022-09-21T22:54:03.332Z,8.76
2022-09-21T22:57:47.499Z,8.77
2022-09-21T23:01:31.532Z,8.76
2022-09-21T23:05:14.364Z,8.75
2022-09-21T23:08:59.509Z,8.71
2022-09-21T23:12:42.549Z,8.61
2022-09-21T23:16:28.768Z,8.52
2022-09-21T23:20:12.522Z,8.42
2022-09-21T23:23:56.686Z,8.36
2022-09-21T23:27:41.896Z,8.36
2022-09-21T23:31:27.581Z,8.32
2022-09-21T23:35:10.609Z,8.29
2022-09-21T23:38:53.451Z,8.22
2022-09-21T23:42:36.202Z,8.22
2022-09-21T23:46:20.609Z,8.16
2022-09-21T23:50:04.907Z,8.15
2022-09-21T23:53:50.867Z,8.10
2022-09-21T23:57:33.643Z,8.10
